createdAt,value
2016-08-20T11:36:20.073Z,67
2016-08-20T11:37:18.092Z,66
2016-08-20T11:38:15.881Z,66
2016-08-20T11:39:13.666Z,66
2016-08-20T11:40:11.450Z,66
2016-08-20T11:41:13.039Z,66
2016-08-20T11:42:14.628Z,66
2016-08-20T11:43:16.219Z,66
2016-08-20T11:44:17.982Z,66
2016-08-20T11:45:18.912Z,66
2016-08-20T11:46:20.467Z,66
2016-08-20T11:47:22.065Z,66
2016-08-20T11:48:23.766Z,66
2016-08-20T11:49:25.240Z,66
2016-08-20T11:50:26.821Z,66
2016-08-20T11:51:28.529Z,66
2016-08-20T11:52:30.001Z,66
2016-08-20T11:53:31.586Z,66
2016-08-20T11:54:33.244Z,66
2016-08-20T11:55:34.387Z,66
2016-08-20T11:56:35.856Z,65
2016-08-20T11:57:37.188Z,65
2016-08-20T11:58:38.524Z,65
2016-08-20T11:59:39.969Z,65
2016-08-20T12:00:41.188Z,65
2016-08-20T12:01:42.643Z,65
2016-08-20T12:02:43.968Z,65
2016-08-20T12:03:45.194Z,65
2016-08-20T12:04:46.579Z,65
2016-08-20T12:05:47.614Z,65
2016-08-20T12:06:48.942Z,65
2016-08-20T12:07:50.282Z,65
2016-08-20T12:08:51.618Z,65
2016-08-20T12:09:52.950Z,65
2016-08-20T12:10:54.284Z,65
2016-08-20T12:11:55.618Z,65
2016-08-20T12:12:56.953Z,65
2016-08-20T12:13:58.285Z,65
2016-08-20T12:14:59.822Z,65
2016-08-20T12:16:00.705Z,65
2016-08-20T12:17:02.049Z,66
2016-08-20T12:18:03.751Z,66
2016-08-20T12:19:05.223Z,66
2016-08-20T12:20:06.816Z,66
2016-08-20T12:21:08.443Z,66
2016-08-20T12:22:09.988Z,66
2016-08-20T12:23:11.575Z,66
2016-08-20T12:24:13.283Z,66
2016-08-20T12:25:14.812Z,66
2016-08-20T12:26:15.856Z,66
2016-08-20T12:27:17.428Z,66
2016-08-20T12:28:19.131Z,66
2016-08-20T12:29:20.602Z,66
2016-08-20T12:30:22.189Z,66
2016-08-20T12:31:23.900Z,66
2016-08-20T12:32:25.367Z,66
2016-08-20T12:33:26.954Z,66
2016-08-20T12:34:28.542Z,66
2016-08-20T12:35:30.188Z,66
2016-08-20T12:36:31.211Z,65
2016-08-20T12:37:32.554Z,65
2016-08-20T12:38:33.877Z,65
2016-08-20T12:39:35.222Z,65
2016-08-20T12:40:36.549Z,65
2016-08-20T12:41:37.998Z,65
2016-08-20T12:42:39.217Z,65
2016-08-20T12:43:40.548Z,65
2016-08-20T12:44:41.632Z,65
2016-08-20T12:45:42.777Z,65
2016-08-20T12:46:43.795Z,65
2016-08-20T12:47:44.883Z,65
2016-08-20T12:48:46.079Z,65
2016-08-20T12:49:47.071Z,65
2016-08-20T12:50:48.256Z,65
2016-08-20T12:51:49.204Z,65
2016-08-20T12:52:50.039Z,65
2016-08-20T12:53:50.857Z,65
2016-08-20T12:54:51.686Z,65
2016-08-20T12:55:52.595Z,65
2016-08-20T12:56:53.597Z,65
2016-08-20T12:57:54.421Z,65
2016-08-20T12:58:55.253Z,65
2016-08-20T12:59:56.083Z,65
2016-08-20T13:00:56.928Z,64
2016-08-20T13:01:57.496Z,65
2016-08-20T13:02:58.429Z,65
2016-08-20T13:03:59.157Z,65
2016-08-20T13:04:59.961Z,64
2016-08-20T13:06:00.714Z,64
2016-08-20T13:07:01.619Z,64
2016-08-20T13:08:02.194Z,64
2016-08-20T13:09:02.770Z,64
2016-08-20T13:10:03.340Z,64
2016-08-20T13:11:03.916Z,64
2016-08-20T13:12:04.491Z,64
2016-08-20T13:13:05.062Z,64
2016-08-20T13:14:05.655Z,64
2016-08-20T13:15:06.216Z,64
2016-08-20T13:16:06.963Z,64
2016-08-20T13:17:07.875Z,64
2016-08-20T13:18:08.441Z,64
2016-08-20T13:19:08.762Z,64
2016-08-20T13:20:08.988Z,64
2016-08-20T13:21:09.403Z,64
2016-08-20T13:22:09.742Z,64
2016-08-20T13:23:10.156Z,64
2016-08-20T13:24:10.368Z,64
2016-08-20T13:25:10.686Z,64
2016-08-20T13:26:11.074Z,64
2016-08-20T13:27:12.088Z,64
2016-08-20T13:28:12.410Z,64
2016-08-20T13:29:12.731Z,63
2016-08-20T13:30:12.794Z,63
2016-08-20T13:31:12.863Z,63
2016-08-20T13:32:12.933Z,63
2016-08-20T13:33:13.000Z,63
2016-08-20T13:34:13.065Z,63
2016-08-20T13:35:13.125Z,63
2016-08-20T13:36:13.250Z,63
2016-08-20T13:37:14.272Z,63
2016-08-20T13:38:14.200Z,63
2016-08-20T13:39:13.898Z,63
2016-08-20T13:40:13.827Z,63
2016-08-20T13:41:13.529Z,63
2016-08-20T13:42:13.342Z,63
2016-08-20T13:43:13.156Z,63
2016-08-20T13:44:12.961Z,63
2016-08-20T13:45:12.791Z,63
2016-08-20T13:46:12.648Z,63
2016-08-20T13:47:13.673Z,63
2016-08-20T13:48:13.606Z,63
2016-08-20T13:49:13.305Z,63
2016-08-20T13:50:13.109Z,63
2016-08-20T13:51:12.925Z,63
2016-08-20T13:52:12.742Z,63
2016-08-20T13:53:12.554Z,63
2016-08-20T13:54:12.543Z,63
2016-08-20T13:55:12.296Z,63
2016-08-20T13:56:12.167Z,63
2016-08-20T13:57:13.077Z,63
2016-08-20T13:58:12.895Z,63
2016-08-20T13:59:12.700Z,63
2016-08-20T14:00:12.514Z,63
2016-08-20T14:01:12.583Z,63
2016-08-20T14:02:12.526Z,63
2016-08-20T14:03:12.577Z,63
2016-08-20T14:04:12.529Z,63
2016-08-20T14:05:12.334Z,63
2016-08-20T14:06:12.209Z,63
2016-08-20T14:07:13.237Z,63
2016-08-20T14:08:13.044Z,63
2016-08-20T14:09:12.854Z,63
2016-08-20T14:10:12.786Z,63
2016-08-20T14:11:12.491Z,63
2016-08-20T14:12:12.413Z,63
2016-08-20T14:13:12.238Z,63
2016-08-20T14:14:11.942Z,63
2016-08-20T14:15:11.847Z,63
2016-08-20T14:16:11.608Z,63
2016-08-20T14:17:12.631Z,63
2016-08-20T14:18:12.562Z,63
2016-08-20T14:19:12.248Z,63
2016-08-20T14:20:12.068Z,63
2016-08-20T14:21:11.881Z,63
2016-08-20T14:22:11.699Z,63
2016-08-20T14:23:11.758Z,63
2016-08-20T14:24:11.823Z,63
2016-08-20T14:25:11.889Z,63
2016-08-20T14:26:12.014Z,63
2016-08-20T14:27:13.039Z,63
2016-08-20T14:28:13.221Z,63
2016-08-20T14:29:13.175Z,63
2016-08-20T14:30:13.253Z,63
2016-08-20T14:31:13.302Z,63
2016-08-20T14:32:13.366Z,63
2016-08-20T14:33:13.551Z,63
2016-08-20T14:34:13.504Z,63
2016-08-20T14:35:13.312Z,63
2016-08-20T14:36:13.184Z,63
2016-08-20T14:37:14.200Z,63
2016-08-20T14:38:14.264Z,63
2016-08-20T14:39:14.077Z,63
2016-08-20T14:40:13.926Z,63
2016-08-20T14:41:13.703Z,63
2016-08-20T14:42:14.008Z,63
2016-08-20T14:43:13.327Z,63
2016-08-20T14:44:13.263Z,63
2016-08-20T14:45:12.959Z,63
2016-08-20T14:46:12.825Z,63
2016-08-20T14:47:13.893Z,63
2016-08-20T14:48:13.663Z,63
2016-08-20T14:49:13.475Z,63
2016-08-20T14:50:13.292Z,63
2016-08-20T14:51:13.104Z,63
2016-08-20T14:52:13.042Z,63
2016-08-20T14:53:12.743Z,63
2016-08-20T14:54:12.548Z,63
2016-08-20T14:55:12.363Z,63
2016-08-20T14:56:12.229Z,63
2016-08-20T14:57:13.258Z,63
2016-08-20T14:58:13.186Z,63
2016-08-20T14:59:12.886Z,63
2016-08-20T15:00:12.697Z,63
2016-08-20T15:01:12.521Z,63
2016-08-20T15:02:12.376Z,62
2016-08-20T15:03:12.018Z,62
2016-08-20T15:04:11.463Z,62
2016-08-20T15:05:11.139Z,62
2016-08-20T15:06:10.754Z,62
2016-08-20T15:07:11.654Z,62
2016-08-20T15:08:11.216Z,62
2016-08-20T15:09:10.765Z,63
2016-08-20T15:10:10.694Z,63
2016-08-20T15:11:10.389Z,63
2016-08-20T15:12:10.210Z,63
2016-08-20T15:13:10.024Z,63
2016-08-20T15:14:09.868Z,62
2016-08-20T15:15:09.528Z,62
2016-08-20T15:16:09.025Z,62
2016-08-20T15:17:10.154Z,63
2016-08-20T15:18:09.847Z,63
2016-08-20T15:19:09.779Z,63
2016-08-20T15:20:09.481Z,63
2016-08-20T15:22:09.114Z,62
2016-08-20T15:23:08.780Z,63
2016-08-20T15:24:08.514Z,63
2016-08-20T15:25:08.305Z,62
2016-08-20T15:26:07.919Z,62
2016-08-20T15:27:09.057Z,62
2016-08-20T15:28:08.622Z,62
2016-08-20T15:29:08.067Z,62
2016-08-20T15:30:07.625Z,63
2016-08-20T15:31:07.424Z,63
2016-08-20T15:32:07.257Z,63
2016-08-20T15:34:06.862Z,63
2016-08-20T15:35:06.683Z,63
2016-08-20T15:36:06.548Z,63
2016-08-20T15:37:07.574Z,63
2016-08-20T15:38:07.383Z,63
2016-08-20T15:39:07.210Z,62
2016-08-20T15:40:06.897Z,62
2016-08-20T15:41:06.331Z,62
2016-08-20T15:42:05.900Z,62
2016-08-20T15:43:05.457Z,62
2016-08-20T15:44:05.010Z,63
2016-08-20T15:45:04.839Z,62
2016-08-20T15:46:04.443Z,62
2016-08-20T15:47:05.582Z,62
2016-08-20T15:48:05.010Z,63
2016-08-20T15:49:04.841Z,63
2016-08-20T15:50:04.642Z,63
2016-08-20T15:51:04.451Z,63
2016-08-20T15:52:04.265Z,63
2016-08-20T15:53:04.205Z,63
2016-08-20T15:55:03.468Z,62
2016-08-20T15:56:03.086Z,62
2016-08-20T15:57:04.238Z,62
2016-08-20T15:58:03.667Z,62
2016-08-20T15:59:03.343Z,62
2016-08-20T16:00:02.782Z,62
2016-08-20T16:01:02.589Z,62
2016-08-20T16:02:01.901Z,62
2016-08-20T16:03:01.595Z,62
2016-08-20T16:04:01.019Z,62
2016-08-20T16:05:00.583Z,62
2016-08-20T16:06:00.201Z,62
2016-08-20T16:07:01.217Z,62
2016-08-20T16:08:00.782Z,62
2016-08-20T16:09:00.198Z,62
2016-08-20T16:09:59.390Z,62
2016-08-20T16:11:57.998Z,62
2016-08-20T16:12:57.311Z,62
2016-08-20T16:13:56.616Z,62
2016-08-20T16:14:55.946Z,62
2016-08-20T16:15:55.403Z,62
2016-08-20T16:16:56.306Z,62
2016-08-20T16:17:55.620Z,62
2016-08-20T16:18:55.041Z,62
2016-08-20T16:19:54.346Z,62
2016-08-20T16:20:53.535Z,62
2016-08-20T16:21:52.973Z,62
2016-08-20T16:22:52.273Z,62
2016-08-20T16:23:51.454Z,62
2016-08-20T16:24:50.880Z,62
2016-08-20T16:25:50.121Z,62
2016-08-20T16:26:51.146Z,62
2016-08-20T16:27:50.570Z,62
2016-08-20T16:28:49.757Z,62
2016-08-20T16:29:49.176Z,61
2016-08-20T16:30:48.118Z,62
2016-08-20T16:31:47.420Z,62
2016-08-20T16:32:46.729Z,62
2016-08-20T16:33:46.151Z,62
2016-08-20T16:34:45.460Z,62
2016-08-20T16:35:44.704Z,62
2016-08-20T16:36:45.725Z,62
2016-08-20T16:37:45.031Z,62
2016-08-20T16:38:44.339Z,62
2016-08-20T16:39:43.642Z,62
2016-08-20T16:40:43.076Z,62
2016-08-20T16:41:42.382Z,62
2016-08-20T16:42:41.681Z,62
2016-08-20T16:43:40.815Z,62
2016-08-20T16:44:40.187Z,62
2016-08-20T16:45:39.542Z,62
2016-08-20T16:46:40.560Z,62
2016-08-20T16:47:39.879Z,62
2016-08-20T16:48:39.172Z,62
2016-08-20T16:49:38.481Z,62
2016-08-20T16:50:37.796Z,62
2016-08-20T16:51:37.117Z,62
2016-08-20T16:52:36.408Z,62
2016-08-20T16:53:35.835Z,62
2016-08-20T16:54:35.025Z,62
2016-08-20T16:55:34.387Z,62
2016-08-20T16:56:35.525Z,62
2016-08-20T16:57:34.716Z,62
2016-08-20T16:58:34.018Z,62
2016-08-20T16:59:33.328Z,62
2016-08-20T17:00:32.638Z,62
2016-08-20T17:01:32.061Z,62
2016-08-20T17:02:31.499Z,62
2016-08-20T17:03:31.056Z,62
2016-08-20T17:04:30.736Z,62
2016-08-20T17:05:30.240Z,62
2016-08-20T17:06:31.369Z,62
2016-08-20T17:07:30.829Z,62
2016-08-20T17:08:30.374Z,62
2016-08-20T17:09:30.051Z,62
2016-08-20T17:10:29.505Z,62
2016-08-20T17:11:29.054Z,62
2016-08-20T17:12:28.624Z,62
2016-08-20T17:13:28.166Z,63
2016-08-20T17:14:27.997Z,63
2016-08-20T17:15:28.215Z,63
2016-08-20T17:16:29.130Z,64
2016-08-20T17:17:29.446Z,64
2016-08-20T17:18:30.147Z,64
2016-08-20T17:19:30.856Z,65
2016-08-20T17:20:31.942Z,65
2016-08-20T17:21:33.279Z,66
2016-08-20T17:22:34.862Z,67
2016-08-20T17:23:33.016Z,67
2016-08-20T17:24:30.926Z,67
2016-08-20T17:25:29.277Z,67
2016-08-20T17:26:30.300Z,67
2016-08-20T17:27:28.594Z,68
2016-08-20T17:28:27.138Z,68
2016-08-20T17:29:25.692Z,68
2016-08-20T17:30:24.498Z,69
2016-08-20T17:31:23.539Z,69
2016-08-20T17:32:22.630Z,69
2016-08-20T17:33:21.767Z,69
2016-08-20T17:34:20.703Z,69
2016-08-20T17:35:19.814Z,69
2016-08-20T17:36:20.839Z,69
2016-08-20T17:37:20.143Z,69
2016-08-20T17:38:19.458Z,69
2016-08-20T17:39:18.766Z,69
2016-08-20T17:40:18.070Z,69
2016-08-20T17:41:17.370Z,70
2016-08-20T17:42:17.056Z,70
2016-08-20T17:43:16.748Z,70
2016-08-20T17:44:16.679Z,70
2016-08-20T17:45:16.552Z,70
2016-08-20T17:46:17.573Z,70
2016-08-20T17:47:17.531Z,70
2016-08-20T17:48:17.505Z,70
2016-08-20T17:49:17.788Z,70
2016-08-20T17:50:17.730Z,71
2016-08-20T17:51:18.056Z,71
2016-08-20T17:52:18.386Z,71
2016-08-20T17:53:18.705Z,71
2016-08-20T17:54:19.279Z,71
2016-08-20T17:55:20.028Z,71
2016-08-20T17:56:20.936Z,71
2016-08-20T17:57:21.630Z,71
2016-08-20T17:58:22.165Z,71
2016-08-20T17:59:22.760Z,71
2016-08-20T18:00:23.574Z,71
2016-08-20T18:01:23.919Z,71
2016-08-20T18:02:24.637Z,71
2016-08-20T18:03:24.962Z,71
2016-08-20T18:04:25.524Z,72
2016-08-20T18:05:26.407Z,72
2016-08-20T18:06:27.553Z,72
2016-08-20T18:07:28.517Z,72
2016-08-20T18:08:29.627Z,72
2016-08-20T18:09:30.685Z,72
2016-08-20T18:10:31.762Z,72
2016-08-20T18:11:32.980Z,72
2016-08-20T18:12:33.922Z,72
2016-08-20T18:13:35.163Z,72
2016-08-20T18:14:36.279Z,72
2016-08-20T18:15:37.353Z,72
2016-08-20T18:16:38.411Z,72
2016-08-20T18:17:39.346Z,72
2016-08-20T18:18:40.507Z,72
2016-08-20T18:19:41.616Z,72
2016-08-20T18:20:42.590Z,72
2016-08-20T18:21:43.666Z,72
2016-08-20T18:22:44.824Z,72
2016-08-20T18:23:45.823Z,72
2016-08-20T18:24:46.906Z,72
2016-08-20T18:25:48.313Z,72
2016-08-20T18:26:49.181Z,73
2016-08-20T18:27:50.510Z,73
2016-08-20T18:28:51.841Z,73
2016-08-20T18:29:53.117Z,73
2016-08-20T18:30:54.682Z,73
2016-08-20T18:31:55.927Z,73
2016-08-20T18:32:57.260Z,73
2016-08-20T18:33:58.579Z,73
2016-08-20T18:34:59.877Z,73
2016-08-20T18:36:01.317Z,73
2016-08-20T18:37:02.340Z,73
2016-08-20T18:38:03.693Z,73
2016-08-20T18:39:05.275Z,73
2016-08-20T18:40:06.837Z,73
2016-08-20T18:41:08.262Z,73
2016-08-20T18:42:09.859Z,73
2016-08-20T18:43:07.643Z,73
2016-08-20T18:44:05.428Z,73
2016-08-20T18:45:03.223Z,73
2016-08-20T18:46:01.060Z,73
2016-08-20T18:47:02.198Z,73
2016-08-20T18:47:59.878Z,73
2016-08-20T18:48:57.773Z,73
2016-08-20T18:49:55.447Z,73
2016-08-20T18:50:53.229Z,73
2016-08-20T18:51:54.929Z,73
2016-08-20T18:52:52.612Z,73
2016-08-20T18:53:50.396Z,73
2016-08-20T18:54:48.177Z,73
2016-08-20T18:55:46.023Z,73
2016-08-20T18:56:47.052Z,73
2016-08-20T18:57:44.957Z,74
2016-08-20T18:58:42.876Z,73
2016-08-20T18:59:40.668Z,73
2016-08-20T19:00:38.651Z,74
2016-08-20T19:01:36.502Z,73
2016-08-20T19:02:34.294Z,74
2016-08-20T19:03:32.486Z,74
2016-08-20T19:04:30.502Z,74
2016-08-20T19:05:28.472Z,74
2016-08-20T19:06:29.628Z,74
2016-08-20T19:07:27.909Z,74
2016-08-20T19:08:26.103Z,74
2016-08-20T19:09:24.490Z,74
2016-08-20T19:10:22.676Z,74
2016-08-20T19:11:20.973Z,74
2016-08-20T19:12:19.261Z,74
2016-08-20T19:13:17.537Z,74
2016-08-20T19:14:15.833Z,74
2016-08-20T19:15:14.204Z,74
2016-08-20T19:16:15.219Z,74
2016-08-20T19:17:13.525Z,74
2016-08-20T19:18:11.928Z,74
2016-08-20T19:19:09.917Z,74
2016-08-20T19:20:07.990Z,74
2016-08-20T19:21:05.963Z,74
2016-08-20T19:22:04.252Z,74
2016-08-20T19:23:02.323Z,74
2016-08-20T19:24:00.609Z,74
2016-08-20T19:24:58.904Z,74
2016-08-20T19:26:00.046Z,75
2016-08-20T19:26:58.595Z,75
2016-08-20T19:27:57.139Z,75
2016-08-20T19:28:55.569Z,75
2016-08-20T19:29:54.127Z,75
2016-08-20T19:30:52.737Z,74
2016-08-20T19:31:51.096Z,75
2016-08-20T19:32:49.691Z,75
2016-08-20T19:33:48.057Z,75
2016-08-20T19:34:46.661Z,75
2016-08-20T19:35:47.686Z,75
2016-08-20T19:36:46.237Z,75
2016-08-20T19:37:44.901Z,75
2016-08-20T19:38:43.376Z,75
2016-08-20T19:39:41.890Z,75
2016-08-20T19:40:40.549Z,75
2016-08-20T19:41:38.985Z,75
2016-08-20T19:42:37.640Z,75
2016-08-20T19:43:36.197Z,75
2016-08-20T19:44:35.059Z,75
2016-08-20T19:45:36.082Z,75
2016-08-20T19:46:34.891Z,75
2016-08-20T19:47:33.564Z,75
2016-08-20T19:48:32.478Z,75
2016-08-20T19:49:31.283Z,75
2016-08-20T19:50:30.181Z,75
2016-08-20T19:51:28.863Z,75
2016-08-20T19:52:27.849Z,75
2016-08-20T19:53:26.529Z,75
2016-08-20T19:54:25.335Z,76
2016-08-20T19:55:26.395Z,76
2016-08-20T19:56:25.300Z,76
2016-08-20T19:57:24.358Z,76
2016-08-20T19:58:23.406Z,76
2016-08-20T19:59:22.466Z,76
2016-08-20T20:00:21.632Z,76
2016-08-20T20:01:20.812Z,76
2016-08-20T20:02:19.783Z,76
2016-08-20T20:03:18.979Z,76
2016-08-20T20:04:17.797Z,76
2016-08-20T20:05:18.935Z,76
2016-08-20T20:06:17.879Z,76
2016-08-20T20:07:17.042Z,76
2016-08-20T20:08:16.049Z,76
2016-08-20T20:09:15.036Z,76
2016-08-20T20:10:14.096Z,76
2016-08-20T20:11:13.265Z,76
2016-08-20T20:12:12.625Z,76
2016-08-20T20:13:11.369Z,76
2016-08-20T20:14:10.372Z,76
2016-08-20T20:15:11.530Z,76
2016-08-20T20:16:10.457Z,76
2016-08-20T20:17:09.512Z,76
2016-08-20T20:18:08.567Z,76
2016-08-20T20:19:07.736Z,76
2016-08-20T20:20:06.680Z,76
2016-08-20T20:21:05.735Z,76
2016-08-20T20:22:04.787Z,76
2016-08-20T20:23:03.844Z,76
2016-08-20T20:24:02.957Z,76
2016-08-20T20:25:03.982Z,76
2016-08-20T20:26:03.033Z,76
2016-08-20T20:27:02.093Z,76
2016-08-20T20:28:01.262Z,76
2016-08-20T20:29:00.200Z,76
2016-08-20T20:29:59.374Z,76
2016-08-20T20:30:58.299Z,76
2016-08-20T20:31:57.718Z,76
2016-08-20T20:32:56.915Z,76
2016-08-20T20:33:56.280Z,76
2016-08-20T20:34:57.416Z,76
2016-08-20T20:35:56.894Z,76
2016-08-20T20:36:55.927Z,76
2016-08-20T20:37:55.230Z,76
2016-08-20T20:38:54.648Z,76
2016-08-20T20:39:53.839Z,76
2016-08-20T20:40:53.149Z,76
2016-08-20T20:41:52.455Z,76
2016-08-20T20:42:51.766Z,76
2016-08-20T20:43:51.127Z,76
2016-08-20T20:44:52.158Z,76
2016-08-20T20:45:51.716Z,76
2016-08-20T20:46:51.396Z,76
2016-08-20T20:47:50.841Z,76
2016-08-20T20:48:50.405Z,76
2016-08-20T20:49:50.079Z,76
2016-08-20T20:50:49.526Z,76
2016-08-20T20:51:49.201Z,76
2016-08-20T20:52:48.648Z,76
2016-08-20T20:53:48.265Z,76
2016-08-20T20:54:49.294Z,76
2016-08-20T20:55:48.857Z,76
2016-08-20T20:56:48.422Z,76
2016-08-20T20:57:47.975Z,76
2016-08-20T20:58:47.660Z,76
2016-08-20T20:59:47.213Z,76
2016-08-20T21:00:46.666Z,77
2016-08-20T21:02:46.642Z,77
2016-08-20T21:03:46.329Z,76
2016-08-20T21:04:47.441Z,77
2016-08-20T21:05:47.265Z,77
2016-08-20T21:06:46.827Z,77
2016-08-20T21:07:46.637Z,76
2016-08-20T21:08:46.313Z,76
2016-08-20T21:09:45.879Z,76
2016-08-20T21:10:45.460Z,76
2016-08-20T21:11:44.947Z,76
2016-08-20T21:12:44.667Z,77
2016-08-20T21:13:44.434Z,76
2016-08-20T21:14:45.408Z,77
2016-08-20T21:15:45.246Z,77
2016-08-20T21:16:44.977Z,77
2016-08-20T21:17:44.795Z,77
2016-08-20T21:18:44.614Z,77
2016-08-20T21:19:44.427Z,77
2016-08-20T21:20:44.553Z,77
2016-08-20T21:21:44.256Z,77
2016-08-20T21:23:43.742Z,77
2016-08-20T21:24:44.770Z,77
2016-08-20T21:25:44.588Z,77
2016-08-20T21:26:44.513Z,77
2016-08-20T21:27:44.215Z,77
2016-08-20T21:28:44.144Z,77
2016-08-20T21:29:43.953Z,76
2016-08-20T21:30:43.401Z,76
2016-08-20T21:31:42.963Z,76
2016-08-20T21:32:42.526Z,76
2016-08-20T21:33:42.137Z,76
2016-08-20T21:34:43.172Z,76
2016-08-20T21:35:42.470Z,76
2016-08-20T21:36:41.799Z,76
2016-08-20T21:37:40.848Z,76
2016-08-20T21:38:39.898Z,76
2016-08-20T21:39:38.957Z,76
2016-08-20T21:40:38.010Z,76
2016-08-20T21:41:37.066Z,76
2016-08-20T21:42:36.117Z,76
2016-08-20T21:43:35.239Z,76
2016-08-20T21:44:36.371Z,76
2016-08-20T21:45:35.326Z,75
2016-08-20T21:46:34.238Z,75
2016-08-20T21:47:32.951Z,75
2016-08-20T21:48:31.745Z,75
2016-08-20T21:49:30.747Z,75
2016-08-20T21:50:29.553Z,75
2016-08-20T21:51:28.134Z,75
2016-08-20T21:52:26.677Z,75
2016-08-20T21:53:25.283Z,75
2016-08-20T21:54:26.627Z,75
2016-08-20T21:55:24.851Z,75
2016-08-20T21:56:23.400Z,75
2016-08-20T21:57:21.944Z,75
2016-08-20T21:58:20.835Z,75
2016-08-20T21:59:19.169Z,74
2016-08-20T22:00:17.338Z,74
2016-08-20T22:01:15.630Z,74
2016-08-20T22:02:14.116Z,74
2016-08-20T22:03:12.574Z,74
2016-08-20T22:04:13.301Z,74
2016-08-20T22:05:11.422Z,74
2016-08-20T22:06:09.778Z,74
2016-08-20T22:07:07.425Z,74
2016-08-20T22:08:05.464Z,74
2016-08-20T22:09:03.507Z,74
2016-08-20T22:10:01.660Z,74
2016-08-20T22:10:59.702Z,74
2016-08-20T22:11:57.744Z,74
2016-08-20T22:12:55.724Z,74
2016-08-20T22:13:56.770Z,74
2016-08-20T22:14:54.811Z,74
2016-08-20T22:15:52.833Z,74
2016-08-20T22:16:50.875Z,74
2016-08-20T22:17:48.913Z,73
2016-08-20T22:18:47.148Z,74
2016-08-20T22:19:44.741Z,74
2016-08-20T22:20:42.780Z,73
2016-08-20T22:21:40.567Z,73
2016-08-20T22:22:38.418Z,73
2016-08-20T22:23:39.443Z,73
2016-08-20T22:24:37.234Z,73
2016-08-20T22:25:35.020Z,73
2016-08-20T22:26:32.804Z,73
2016-08-20T22:27:30.709Z,73
2016-08-20T22:28:28.535Z,73
2016-08-20T22:29:29.970Z,73
2016-08-20T22:30:31.560Z,73
2016-08-20T22:31:33.153Z,73
2016-08-20T22:32:34.813Z,73
2016-08-20T22:33:35.834Z,73
2016-08-20T22:34:37.412Z,73
2016-08-20T22:35:39.003Z,73
2016-08-20T22:36:40.699Z,73
2016-08-20T22:37:42.176Z,73
2016-08-20T22:38:43.766Z,73
2016-08-20T22:39:45.357Z,73
2016-08-20T22:40:46.945Z,73
2016-08-20T22:41:48.533Z,73
2016-08-20T22:42:50.293Z,73
2016-08-20T22:43:51.207Z,72
2016-08-20T22:44:52.540Z,73
2016-08-20T22:45:54.133Z,72
2016-08-20T22:46:55.467Z,72
2016-08-20T22:47:56.801Z,72
2016-08-20T22:48:58.136Z,73
2016-08-20T22:49:59.726Z,73
2016-08-20T22:51:01.435Z,72
2016-08-20T22:52:02.649Z,73
2016-08-20T22:53:04.409Z,73
2016-08-20T22:54:05.321Z,73
2016-08-20T22:55:06.915Z,73
2016-08-20T22:56:08.500Z,73
2016-08-20T22:57:10.093Z,73
2016-08-20T22:58:11.800Z,72
2016-08-20T22:59:13.020Z,72
2016-08-20T23:00:14.492Z,72
2016-08-20T23:01:15.690Z,72
2016-08-20T23:02:17.144Z,72
2016-08-20T23:03:18.536Z,73
2016-08-20T23:04:19.562Z,72
2016-08-20T23:05:20.779Z,72
2016-08-20T23:06:22.166Z,72
2016-08-20T23:07:23.451Z,73
2016-08-20T23:08:25.157Z,73
2016-08-20T23:09:26.746Z,73
2016-08-20T23:10:28.236Z,73
2016-08-20T23:11:29.810Z,73
2016-08-20T23:12:31.412Z,73
2016-08-20T23:13:33.045Z,73
2016-08-20T23:14:34.073Z,73
2016-08-20T23:15:35.678Z,73
2016-08-20T23:16:37.245Z,73
2016-08-20T23:17:38.947Z,73
2016-08-20T23:18:40.539Z,73
2016-08-20T23:19:42.455Z,73
2016-08-20T23:20:43.603Z,73
2016-08-20T23:21:45.196Z,73
2016-08-20T23:22:42.981Z,73
2016-08-20T23:23:40.936Z,73
2016-08-20T23:24:41.961Z,73
2016-08-20T23:25:43.437Z,73
2016-08-20T23:26:45.030Z,73
2016-08-20T23:27:46.731Z,73
2016-08-20T23:28:48.207Z,73
2016-08-20T23:29:49.908Z,73
2016-08-20T23:30:51.391Z,73
2016-08-20T23:31:52.987Z,73
2016-08-20T23:32:54.685Z,73
2016-08-20T23:33:56.215Z,73
2016-08-20T23:34:57.243Z,73
2016-08-20T23:35:55.032Z,73
2016-08-20T23:36:52.808Z,73
2016-08-20T23:37:50.599Z,74
2016-08-20T23:38:48.756Z,74
2016-08-20T23:39:46.806Z,74
2016-08-20T23:40:44.737Z,74
2016-08-20T23:41:42.761Z,74
2016-08-20T23:42:40.930Z,74
2016-08-20T23:43:39.253Z,74
2016-08-20T23:44:40.120Z,74
2016-08-20T23:45:38.148Z,74
2016-08-20T23:46:36.206Z,74
2016-08-20T23:47:34.234Z,74
2016-08-20T23:48:32.262Z,74
2016-08-20T23:49:30.327Z,74
2016-08-20T23:50:28.370Z,74
2016-08-20T23:51:26.412Z,74
2016-08-20T23:52:24.485Z,74
2016-08-20T23:53:22.533Z,74
2016-08-20T23:54:23.559Z,74
2016-08-20T23:55:21.418Z,74
2016-08-20T23:56:19.714Z,74
2016-08-20T23:57:18.008Z,74
2016-08-20T23:58:16.421Z,74
2016-08-20T23:59:14.598Z,74
